Time;durP1;ratioP1;P1;durP2;ratioP2;P2;SDS_P1;SDS_P2;PMS_P1;PMS_P2;Temp;Humidity;BMP_temperature;BMP_pressure;BME280_temperature;BME280_humidity;BME280_pressure;Samples;Min_cycle;Max_cycle;Signal;HPM_P1;HPM_P2
2022/11/09 00:00:52;;;;;;;17.67;10.53;;;;;;;7.81;95.46;99739.23;1752135;82;21393;-77
2022/11/09 00:03:19;;;;;;;24.85;13.25;;;;;;;7.78;95.76;99737.97;1742272;82;21636;-78
2022/11/09 00:05:56;;;;;;;20.27;11.03;;;;;;;7.73;95.77;99742.28;1727548;82;20980;-77
2022/11/09 00:08:23;;;;;;;17.32;9.90;;;;;;;7.67;95.50;99739.28;1734345;82;21527;-77
2022/11/09 00:10:49;;;;;;;19.20;12.07;;;;;;;7.56;95.77;99735.44;1722552;82;20975;-78
2022/11/09 00:13:16;;;;;;;27.35;15.38;;;;;;;7.50;95.52;99734.17;1732108;82;20964;-78
2022/11/09 00:15:42;;;;;;;20.80;11.60;;;;;;;7.50;96.37;99743.63;1724489;82;21803;-78
2022/11/09 00:18:08;;;;;;;19.40;11.08;;;;;;;7.52;96.71;99742.78;1726684;82;20986;-77
2022/11/09 00:20:35;;;;;;;19.55;10.08;;;;;;;7.57;96.12;99741.47;1723136;82;20988;-78
2022/11/09 00:23:01;;;;;;;21.48;11.28;;;;;;;7.53;95.38;99738.46;1723357;82;21027;-77
2022/11/09 00:25:28;;;;;;;18.30;10.10;;;;;;;7.47;95.93;99738.48;1728974;82;21292;-78
2022/11/09 00:27:54;;;;;;;21.68;11.30;;;;;;;7.43;95.36;99736.33;1721089;82;21487;-77
2022/11/09 00:30:20;;;;;;;19.98;11.57;;;;;;;7.45;95.35;99735.89;1723719;82;21045;-78
2022/11/09 00:32:47;;;;;;;22.80;15.28;;;;;;;7.41;95.21;99746.26;1708468;82;21066;-81
2022/11/09 00:35:14;;;;;;;20.32;11.73;;;;;;;7.38;95.40;99745.80;1725376;82;21024;-78
2022/11/09 00:37:40;;;;;;;19.87;11.45;;;;;;;7.34;95.17;99744.98;1712114;82;21573;-78
2022/11/09 00:40:11;;;;;;;21.87;12.13;;;;;;;7.24;94.77;99744.97;1718161;82;22132;-80
2022/11/09 00:42:38;;;;;;;30.68;17.23;;;;;;;7.15;94.56;99740.68;1716827;82;21507;-77
2022/11/09 00:45:05;;;;;;;17.12;9.80;;;;;;;7.01;94.82;99742.42;1714762;82;21020;-78
2022/11/09 00:47:32;;;;;;;53.50;24.82;;;;;;;7.00;94.54;99741.98;1712608;82;20992;-78
2022/11/09 00:49:59;;;;;;;24.77;13.72;;;;;;;6.87;94.45;99746.30;1709984;82;21024;-77
2022/11/09 00:52:25;;;;;;;27.48;15.38;;;;;;;6.79;94.74;99752.75;1721622;82;21011;-77
2022/11/09 00:54:52;;;;;;;18.00;10.20;;;;;;;6.68;94.77;99751.42;1726978;82;21024;-80
2022/11/09 00:57:19;;;;;;;15.53;9.05;;;;;;;6.61;93.89;99751.01;1722056;82;21056;-77
2022/11/09 00:59:45;;;;;;;15.95;9.05;;;;;;;6.54;94.38;99752.70;1731892;82;20980;-78
2022/11/09 01:02:12;;;;;;;19.37;9.45;;;;;;;6.47;95.44;99749.69;1710270;82;21689;-78
2022/11/09 01:04:38;;;;;;;17.25;9.90;;;;;;;6.48;96.21;99749.25;1709291;84;21039;-77
2022/11/09 01:07:07;;;;;;;20.97;9.68;;;;;;;6.46;96.71;99745.37;1709328;84;21580;-78
2022/11/09 01:09:33;;;;;;;19.82;10.85;;;;;;;6.48;97.09;99743.65;1708996;84;22213;-77
2022/11/09 01:12:00;;;;;;;17.07;9.38;;;;;;;6.52;96.69;99745.81;1709032;84;21084;-77
2022/11/09 01:14:26;;;;;;;18.42;9.65;;;;;;;6.54;96.76;99747.53;1709065;84;21028;-77
2022/11/09 01:16:53;;;;;;;17.25;9.25;;;;;;;6.57;96.17;99750.14;1733662;82;21015;-78
2022/11/09 01:19:19;;;;;;;16.75;9.73;;;;;;;6.60;95.55;99745.83;1738400;82;21551;-78
2022/11/09 01:21:46;;;;;;;15.23;8.40;;;;;;;6.60;95.84;99745.83;1738474;82;21052;-79
2022/11/09 01:24:13;;;;;;;15.20;8.55;;;;;;;6.60;95.51;99743.25;1738333;82;21036;-78
2022/11/09 01:26:39;;;;;;;14.90;8.40;;;;;;;6.57;95.65;99756.59;1738281;82;21072;-80
2022/11/09 01:29:06;;;;;;;17.98;9.78;;;;;;;6.61;95.91;99745.84;1738282;82;21004;-79
2022/11/09 01:31:33;;;;;;;14.65;8.50;;;;;;;6.52;95.98;99747.11;1744588;80;21614;-77
2022/11/09 01:34:01;;;;;;;15.32;8.48;;;;;;;6.50;95.92;99748.83;1751475;81;21346;-78
2022/11/09 01:36:27;;;;;;;18.07;9.35;;;;;;;6.42;96.20;99741.05;1751379;81;21020;-77
2022/11/09 01:38:54;;;;;;;13.98;7.70;;;;;;;6.44;96.35;99745.80;1751426;82;21044;-79
2022/11/09 01:41:25;;;;;;;18.77;9.10;;;;;;;6.49;96.46;99738.93;1751355;82;21031;-80
2022/11/09 01:44:14;;;;;;;17.12;9.08;;;;;;;6.54;96.48;99737.20;1750639;82;21574;-79
2022/11/09 01:47:01;;;;;;;16.23;7.83;;;;;;;6.58;96.51;99740.66;1751454;82;21058;-77
2022/11/09 01:49:33;;;;;;;16.00;8.65;;;;;;;6.60;96.35;99738.93;1751137;82;21982;-79
2022/11/09 01:52:17;;;;;;;13.53;7.00;;;;;;;6.56;96.64;99739.38;1751169;81;21008;-78
2022/11/09 01:54:48;;;;;;;16.02;8.13;;;;;;;6.60;96.78;99738.08;1751215;81;21622;-78
2022/11/09 01:57:23;;;;;;;14.95;9.18;;;;;;;6.62;96.92;99737.65;1750950;81;21574;-77
2022/11/09 01:59:54;;;;;;;15.78;8.53;;;;;;;6.66;97.27;99744.55;1751187;81;21068;-79
2022/11/09 02:02:21;;;;;;;19.35;9.00;;;;;;;6.72;97.00;99743.25;1751907;82;21040;-79
2022/11/09 02:04:57;;;;;;;18.48;9.05;;;;;;;6.76;98.11;99738.52;1752358;82;21000;-79
2022/11/09 02:07:24;;;;;;;17.05;8.40;;;;;;;6.83;97.79;99732.95;1750761;82;21048;-79
2022/11/09 02:10:31;;;;;;;18.55;8.58;;;;;;;6.86;97.71;99738.09;1752396;81;20988;-79
2022/11/09 02:13:01;;;;;;;20.37;10.32;;;;;;;6.86;96.92;99738.95;1752394;82;21492;-79
2022/11/09 02:15:28;;;;;;;18.95;10.03;;;;;;;6.87;98.25;99734.67;1752391;82;20976;-79
2022/11/09 02:17:56;;;;;;;19.95;9.98;;;;;;;6.93;99.12;99730.34;1752416;82;21042;-76
2022/11/09 02:20:24;;;;;;;19.20;10.20;;;;;;;6.99;98.95;99728.64;1752467;82;21416;-78
2022/11/09 02:22:51;;;;;;;18.17;9.65;;;;;;;7.04;99.32;99734.64;1752423;82;20999;-77
2022/11/09 02:25:18;;;;;;;18.23;10.23;;;;;;;7.08;99.37;99738.55;1752327;82;20999;-78
2022/11/09 02:27:45;;;;;;;19.35;9.90;;;;;;;7.10;99.15;99732.94;1752412;81;20956;-78
2022/11/09 02:30:14;;;;;;;15.80;9.15;;;;;;;7.11;98.67;99741.11;1724832;82;21464;-78
2022/11/09 02:32:41;;;;;;;15.93;8.90;;;;;;;7.08;96.83;99737.66;1750191;81;21020;-78
2022/11/09 02:35:09;;;;;;;18.70;8.83;;;;;;;6.96;96.79;99735.53;1749728;82;21036;-77
2022/11/09 02:37:41;;;;;;;18.85;10.72;;;;;;;6.95;98.04;99734.23;1749702;82;20958;-76
2022/11/09 02:40:20;;;;;;;28.87;11.50;;;;;;;6.93;98.08;99738.10;1749652;82;21140;-76
2022/11/09 02:42:46;;;;;;;23.47;10.72;;;;;;;6.92;98.03;99736.39;1749187;82;20976;-79
2022/11/09 02:45:13;;;;;;;24.67;10.82;;;;;;;6.92;97.67;99738.09;1749685;82;21040;-79
2022/11/09 02:47:40;;;;;;;17.10;9.45;;;;;;;6.90;98.24;99735.53;1749703;82;20984;-79
2022/11/09 02:50:08;;;;;;;20.85;9.70;;;;;;;6.94;98.20;99740.25;1749630;82;21165;-77
2022/11/09 02:52:36;;;;;;;16.00;8.55;;;;;;;6.95;98.74;99733.80;1749363;80;21023;-77
2022/11/09 02:55:03;;;;;;;18.52;8.68;;;;;;;6.96;97.81;99735.94;1726762;82;21047;-77
2022/11/09 02:57:29;;;;;;;16.20;8.93;;;;;;;7.00;98.08;99733.78;1748205;82;21016;-79
2022/11/09 02:59:56;;;;;;;24.67;11.20;;;;;;;7.01;98.24;99738.55;1748357;82;20992;-78
2022/11/09 03:02:23;;;;;;;16.57;9.05;;;;;;;7.01;97.80;99739.84;1748246;82;21059;-80
2022/11/09 03:04:50;;;;;;;19.42;9.75;;;;;;;6.99;97.62;99733.80;1774070;80;21288;-79
2022/11/09 03:07:17;;;;;;;22.13;9.50;;;;;;;6.99;97.75;99737.69;1792715;80;21544;-79
2022/11/09 03:09:45;;;;;;;19.10;10.18;;;;;;;6.99;97.41;99736.39;1792891;80;20977;-79
2022/11/09 03:12:29;;;;;;;20.30;10.35;;;;;;;7.02;97.17;99735.94;1792630;80;21034;-79
2022/11/09 03:15:09;;;;;;;19.07;8.95;;;;;;;7.00;97.54;99742.83;1792937;80;21067;-79
2022/11/09 03:17:34;;;;;;;18.95;9.65;;;;;;;7.05;97.80;99745.44;1791375;80;21033;-79
2022/11/09 03:20:02;;;;;;;15.65;8.35;;;;;;;7.07;98.12;99742.41;1792762;80;21051;-79
2022/11/09 03:22:29;;;;;;;16.10;8.48;;;;;;;7.07;97.55;99749.73;1709051;84;21615;-79
2022/11/09 03:24:56;;;;;;;15.60;8.70;;;;;;;7.09;97.72;99744.56;1702225;84;21037;-79
2022/11/09 03:27:23;;;;;;;19.95;8.85;;;;;;;7.15;98.25;99745.86;1694820;84;21050;-80
2022/11/09 03:29:50;;;;;;;15.58;8.58;;;;;;;7.07;98.02;99720.44;1694803;84;21951;-79
2022/11/09 03:32:16;;;;;;;17.92;8.60;;;;;;;7.24;97.87;99751.03;1689751;83;21092;-77
2022/11/09 03:34:43;;;;;;;15.72;8.35;;;;;;;7.28;97.83;99746.28;1685572;85;21139;-77
2022/11/09 03:37:11;;;;;;;17.82;9.78;;;;;;;7.26;97.60;99746.72;1670116;85;21575;-77
2022/11/09 03:39:38;;;;;;;17.98;10.10;;;;;;;7.29;96.85;99746.69;1658397;85;21582;-77
2022/11/09 03:42:05;;;;;;;23.07;10.38;;;;;;;7.23;96.98;99748.00;1669886;85;22198;-78
2022/11/09 03:44:31;;;;;;;17.32;10.03;;;;;;;7.25;97.52;99746.27;1658377;85;21553;-79
2022/11/09 03:46:58;;;;;;;18.32;9.30;;;;;;;7.25;97.61;99746.27;1666023;85;21075;-79
2022/11/09 03:49:24;;;;;;;16.23;9.80;;;;;;;7.17;96.62;99749.30;1671446;85;21028;-78
2022/11/09 03:51:51;;;;;;;19.25;9.75;;;;;;;7.11;97.32;99739.81;1684065;85;21024;-79
2022/11/09 03:54:17;;;;;;;17.20;9.33;;;;;;;7.11;97.54;99744.98;1673303;85;21036;-79
2022/11/09 03:56:44;;;;;;;15.70;9.28;;;;;;;7.11;97.78;99743.70;1639270;85;21515;-77
2022/11/09 03:59:11;;;;;;;21.40;9.73;;;;;;;7.11;97.78;99740.26;1665325;84;20993;-77
2022/11/09 04:01:37;;;;;;;15.55;9.33;;;;;;;7.11;97.81;99748.87;1662990;85;21020;-77
2022/11/09 04:04:04;;;;;;;16.87;9.13;;;;;;;7.06;96.69;99751.02;1674225;85;21087;-77
2022/11/09 04:06:30;;;;;;;17.48;8.60;;;;;;;6.94;96.65;99756.64;1660918;85;21048;-77
2022/11/09 04:08:57;;;;;;;15.68;8.40;;;;;;;6.91;97.44;99748.87;1666625;85;21610;-76
2022/11/09 04:11:23;;;;;;;19.32;8.60;;;;;;;6.88;97.04;99751.88;1658607;85;21028;-78
2022/11/09 04:13:50;;;;;;;15.68;8.50;;;;;;;6.83;97.33;99749.74;1660922;86;21046;-79
2022/11/09 04:16:16;;;;;;;17.52;8.90;;;;;;;6.70;96.87;99743.69;1674812;85;21020;-79
2022/11/09 04:18:43;;;;;;;15.10;8.68;;;;;;;6.64;97.92;99744.53;1666952;84;21027;-79
2022/11/09 04:21:10;;;;;;;18.45;9.63;;;;;;;6.65;97.44;99740.25;1660158;85;21489;-80
2022/11/09 04:23:36;;;;;;;16.10;8.50;;;;;;;6.67;97.51;99739.38;1672187;86;21083;-79
2022/11/09 04:26:02;;;;;;;19.75;9.48;;;;;;;6.71;97.04;99744.13;1678324;85;20978;-79
2022/11/09 04:28:29;;;;;;;18.80;9.85;;;;;;;6.61;97.23;99743.69;1660309;85;21516;-79
2022/11/09 04:31:01;;;;;;;18.73;8.88;;;;;;;6.57;97.49;99736.36;1686528;84;21021;-79
2022/11/09 04:33:28;;;;;;;17.73;8.60;;;;;;;6.59;97.32;99745.41;1661941;84;21071;-77
2022/11/09 04:36:03;;;;;;;15.68;8.45;;;;;;;6.62;97.80;99743.67;1672220;85;21134;-79
2022/11/09 04:38:30;;;;;;;21.12;9.15;;;;;;;6.58;98.14;99744.53;1662245;83;21060;-79
2022/11/09 04:41:00;;;;;;;15.63;7.67;;;;;;;6.59;97.90;99740.25;1673284;83;20992;-79
2022/11/09 04:43:27;;;;;;;14.78;7.75;;;;;;;6.61;97.72;99741.11;1663271;85;21574;-79
2022/11/09 04:45:54;;;;;;;15.15;8.08;;;;;;;6.59;97.51;99737.66;1675840;83;20996;-79
2022/11/09 04:48:21;;;;;;;17.15;8.55;;;;;;;6.53;97.84;99741.95;1674576;83;20988;-80
2022/11/09 04:50:47;;;;;;;15.15;7.97;;;;;;;6.54;98.26;99742.36;1668840;85;21056;-79
2022/11/09 04:53:14;;;;;;;15.88;9.10;;;;;;;6.53;97.76;99747.55;1672807;83;20988;-79
2022/11/09 04:55:41;;;;;;;15.58;7.70;;;;;;;6.52;98.52;99747.95;1674799;85;20997;-79
2022/11/09 04:58:08;;;;;;;13.70;7.87;;;;;;;6.53;98.32;99748.41;1675463;83;21063;-79
2022/11/09 05:00:35;;;;;;;16.27;7.62;;;;;;;6.59;98.42;99747.56;1687397;83;21028;-79
2022/11/09 05:03:04;;;;;;;13.05;7.17;;;;;;;6.55;98.43;99749.70;1664975;83;21088;-79
2022/11/09 05:05:36;;;;;;;13.50;7.15;;;;;;;6.58;98.06;99756.16;1673874;85;21043;-79
2022/11/09 05:08:04;;;;;;;13.13;7.17;;;;;;;6.52;97.67;99748.40;1672663;83;20982;-78
2022/11/09 05:10:31;;;;;;;15.45;7.55;;;;;;;6.53;98.05;99753.58;1663509;85;21133;-77
2022/11/09 05:13:07;;;;;;;13.65;7.25;;;;;;;6.51;98.15;99759.17;1669074;85;21004;-78
2022/11/09 05:15:34;;;;;;;13.95;7.33;;;;;;;6.46;98.23;99753.11;1680593;85;21476;-77
2022/11/09 05:18:02;;;;;;;13.93;7.40;;;;;;;6.46;98.18;99756.14;1693947;82;21506;-77
2022/11/09 05:20:29;;;;;;;13.72;6.70;;;;;;;6.48;98.86;99759.14;1688061;84;21031;-78
2022/11/09 05:25:43;;;;;;;13.53;7.17;;;;;;;6.46;98.05;99763.45;1680378;84;20969;-78
2022/11/09 05:28:11;;;;;;;14.35;6.70;;;;;;;6.45;97.78;99764.33;1687785;84;21009;-78
2022/11/09 05:30:37;;;;;;;13.15;6.28;;;;;;;6.44;98.22;99766.89;1695176;84;21072;-77
2022/11/09 05:33:04;;;;;;;14.07;6.90;;;;;;;6.45;98.13;99767.34;1698953;83;21016;-78
2022/11/09 05:35:32;;;;;;;13.28;7.20;;;;;;;6.46;98.06;99772.49;1708019;83;21064;-77
2022/11/09 05:37:59;;;;;;;16.60;7.00;;;;;;;6.42;98.00;99770.76;1702498;84;20992;-78
2022/11/09 05:40:26;;;;;;;13.95;7.17;;;;;;;6.42;98.69;99771.20;1683791;84;21056;-77
2022/11/09 05:42:52;;;;;;;19.80;8.25;;;;;;;6.44;98.13;99780.66;1700226;83;21062;-77
2022/11/09 05:45:19;;;;;;;15.78;8.08;;;;;;;6.45;98.71;99778.97;1710893;83;21498;-78
2022/11/09 05:47:45;;;;;;;15.65;7.78;;;;;;;6.47;98.41;99783.27;1696821;83;21199;-77
2022/11/09 05:50:14;;;;;;;17.20;8.43;;;;;;;6.46;98.00;99784.11;1678248;83;21015;-76
2022/11/09 05:52:41;;;;;;;14.78;8.08;;;;;;;6.40;97.79;99782.81;1663946;83;21041;-79
2022/11/09 05:55:08;;;;;;;20.57;7.85;;;;;;;6.28;98.10;99790.09;1687891;83;21021;-80
2022/11/09 05:57:35;;;;;;;21.12;9.05;;;;;;;6.23;98.38;99793.50;1695715;83;21002;-78
2022/11/09 06:00:03;;;;;;;20.70;9.25;;;;;;;6.21;98.49;99792.23;1717520;83;21059;-79
2022/11/09 06:02:32;;;;;;;16.32;7.30;;;;;;;6.23;99.22;99798.67;1697058;84;21261;-80
2022/11/09 06:04:58;;;;;;;15.78;7.92;;;;;;;6.24;98.59;99804.28;1688978;83;21042;-82
2022/11/09 06:07:25;;;;;;;19.32;8.80;;;;;;;6.22;98.84;99804.27;1706602;83;21075;-80
2022/11/09 06:09:52;;;;;;;14.78;7.05;;;;;;;6.24;99.00;99806.43;1692877;83;21093;-80
2022/11/09 06:12:18;;;;;;;16.07;7.97;;;;;;;6.26;98.66;99799.98;1686959;84;21049;-79
2022/11/09 06:14:45;;;;;;;19.50;9.10;;;;;;;6.25;98.40;99809.89;1716617;83;21107;-79
2022/11/09 06:17:12;;;;;;;14.75;8.08;;;;;;;6.23;98.83;99802.55;1709657;82;21022;-79
2022/11/09 06:19:38;;;;;;;18.42;8.25;;;;;;;6.25;98.83;99807.31;1703268;83;21036;-79
2022/11/09 06:22:05;;;;;;;15.43;8.10;;;;;;;6.23;98.78;99806.41;1709905;83;20998;-80
2022/11/09 06:24:32;;;;;;;18.60;8.20;;;;;;;6.27;98.92;99804.31;1708961;83;21087;-80
2022/11/09 06:26:58;;;;;;;17.70;8.05;;;;;;;6.26;99.03;99803.86;1702287;83;21066;-79
2022/11/09 06:29:25;;;;;;;20.05;9.00;;;;;;;6.25;99.03;99807.31;1707945;83;21059;-79
2022/11/09 06:31:52;;;;;;;17.37;7.95;;;;;;;6.26;98.72;99807.30;1711035;82;21586;-78
2022/11/09 06:34:18;;;;;;;25.02;9.60;;;;;;;6.22;98.47;99800.40;1695084;82;21366;-79
2022/11/09 06:36:45;;;;;;;29.85;13.25;;;;;;;6.18;99.42;99804.68;1693131;82;20991;-79
2022/11/09 06:39:11;;;;;;;22.85;10.03;;;;;;;6.26;100.00;99803.86;1718367;82;21070;-78
2022/11/09 06:41:38;;;;;;;17.90;8.35;;;;;;;6.29;99.53;99809.05;1739991;80;21521;-79
2022/11/09 06:44:05;;;;;;;23.45;8.28;;;;;;;6.35;98.90;99810.36;1726957;80;21003;-79
2022/11/09 06:46:32;;;;;;;15.93;7.20;;;;;;;6.32;99.43;99811.19;1722542;82;20980;-80
2022/11/09 06:48:59;;;;;;;16.30;8.13;;;;;;;6.39;99.10;99813.38;1729100;82;21095;-80
2022/11/09 06:51:26;;;;;;;17.67;8.60;;;;;;;6.39;99.43;99814.67;1741747;80;21035;-79
2022/11/09 06:53:52;;;;;;;15.63;8.08;;;;;;;6.45;99.44;99811.25;1727979;82;21079;-80
2022/11/09 06:56:19;;;;;;;18.77;8.35;;;;;;;6.46;99.34;99807.36;1720637;80;22224;-80
2022/11/09 06:58:45;;;;;;;23.42;8.95;;;;;;;6.46;99.41;99803.48;1731470;80;20996;-79
2022/11/09 07:01:16;;;;;;;19.92;8.18;;;;;;;6.51;99.39;99803.08;1738226;80;21536;-79
2022/11/09 07:03:43;;;;;;;19.42;8.30;;;;;;;6.56;99.30;99809.55;1731534;80;21571;-79
2022/11/09 07:06:11;;;;;;;26.55;12.15;;;;;;;6.62;99.22;99805.68;1726704;80;20996;-79
2022/11/09 07:08:38;;;;;;;38.45;18.37;;;;;;;6.62;99.39;99805.68;1727614;82;21067;-79
2022/11/09 07:11:15;;;;;;;72.40;30.95;;;;;;;6.68;99.29;99806.12;1725164;80;21024;-80
2022/11/09 07:13:42;;;;;;;34.23;21.07;;;;;;;6.75;99.27;99809.17;1729960;80;21024;-80
2022/11/09 07:16:10;;;;;;;25.75;16.25;;;;;;;6.78;99.06;99810.45;1729159;80;21471;-79
2022/11/09 07:18:37;;;;;;;38.45;28.07;;;;;;;6.83;99.13;99816.94;1734873;80;21464;-81
2022/11/09 07:21:05;;;;;;;20.05;12.28;;;;;;;6.90;99.15;99814.38;1724202;80;21029;-79
2022/11/09 07:23:32;;;;;;;24.75;11.85;;;;;;;6.93;98.73;99809.19;1729817;80;21019;-78
2022/11/09 07:25:59;;;;;;;21.30;9.73;;;;;;;6.99;98.79;99813.51;1730584;80;21805;-79
2022/11/09 07:28:25;;;;;;;20.17;11.20;;;;;;;7.04;98.34;99808.33;1700098;82;21083;-79
2022/11/09 07:30:52;;;;;;;27.65;13.22;;;;;;;7.01;98.01;99804.03;1677566;84;21058;-79
2022/11/09 07:33:21;;;;;;;19.30;10.72;;;;;;;7.00;98.08;99801.44;1674679;83;21075;-81
2022/11/09 07:35:48;;;;;;;23.85;9.83;;;;;;;6.99;97.96;99806.19;1671901;83;21503;-80
2022/11/09 07:38:16;;;;;;;15.15;8.10;;;;;;;7.00;98.18;99814.36;1667174;84;21088;-80
2022/11/09 07:40:43;;;;;;;22.20;10.03;;;;;;;7.04;97.28;99807.89;1684531;84;21088;-80
2022/11/09 07:43:11;;;;;;;22.02;10.32;;;;;;;6.95;97.83;99806.17;1681228;84;21584;-82
2022/11/09 07:45:39;;;;;;;28.62;12.90;;;;;;;7.02;98.47;99810.05;1685511;84;22162;-80
2022/11/09 07:48:09;;;;;;;26.80;11.78;;;;;;;7.10;98.42;99804.05;1681946;84;21054;-79
2022/11/09 07:50:38;;;;;;;18.60;8.88;;;;;;;7.20;98.36;99806.17;1684199;84;21011;-81
2022/11/09 07:53:06;;;;;;;15.38;7.90;;;;;;;7.28;98.13;99805.77;1687073;84;21064;-80
2022/11/09 07:55:34;;;;;;;18.98;7.90;;;;;;;7.30;97.98;99802.75;1665925;84;21895;-80
2022/11/09 07:58:13;;;;;;;15.20;7.37;;;;;;;7.31;97.92;99798.43;1684643;84;20981;-80
2022/11/09 08:00:41;;;;;;;24.10;12.85;;;;;;;7.37;97.76;99797.98;1667465;84;21563;-81
2022/11/09 08:03:08;;;;;;;17.25;8.50;;;;;;;7.38;97.68;99809.19;1687022;84;21112;-79
2022/11/09 08:05:35;;;;;;;16.95;8.80;;;;;;;7.43;97.88;99801.44;1684197;84;22584;-80
2022/11/09 08:08:06;;;;;;;22.98;9.78;;;;;;;7.45;97.39;99810.06;1683517;84;21028;-82
2022/11/09 08:10:35;;;;;;;27.25;9.28;;;;;;;7.45;97.02;99802.30;1682341;84;21024;-79
2022/11/09 08:13:07;;;;;;;18.25;8.73;;;;;;;7.52;97.12;99809.17;1662132;84;21485;-80
2022/11/09 08:15:34;;;;;;;19.50;9.65;;;;;;;7.49;96.49;99810.48;1725262;80;20968;-80
2022/11/09 08:18:05;;;;;;;19.37;8.50;;;;;;;7.42;96.20;99808.34;1738220;80;21052;-80
2022/11/09 08:20:34;;;;;;;19.27;9.15;;;;;;;7.41;96.21;99810.93;1739246;80;21019;-79
2022/11/09 08:23:04;;;;;;;15.63;7.05;;;;;;;7.34;96.50;99801.88;1735793;80;20980;-79
2022/11/09 08:25:34;;;;;;;19.45;7.80;;;;;;;7.40;96.59;99804.02;1731061;80;21023;-80
2022/11/09 08:28:04;;;;;;;18.15;8.35;;;;;;;7.41;96.35;99807.91;1699637;80;21044;-80
2022/11/09 08:30:31;;;;;;;14.18;6.85;;;;;;;7.45;96.78;99803.59;1737852;80;21007;-80
2022/11/09 08:33:01;;;;;;;17.82;6.78;;;;;;;7.52;96.38;99807.88;1732467;80;21058;-81
2022/11/09 08:35:28;;;;;;;15.25;7.15;;;;;;;7.53;96.44;99809.17;1726221;80;21035;-81
2022/11/09 08:37:55;;;;;;;12.65;7.25;;;;;;;7.56;96.77;99807.04;1738102;81;21118;-80
2022/11/09 08:40:24;;;;;;;12.75;6.28;;;;;;;7.69;96.79;99807.42;1737233;81;21941;-80
2022/11/09 08:42:51;;;;;;;14.23;7.75;;;;;;;7.75;96.23;99810.00;1728182;81;21075;-80
2022/11/09 08:45:19;;;;;;;19.85;8.48;;;;;;;7.77;96.01;99804.83;1733304;81;21516;-80
2022/11/09 08:47:46;;;;;;;19.95;9.80;;;;;;;7.85;95.94;99797.05;1727034;81;21025;-81
2022/11/09 08:50:14;;;;;;;16.42;9.00;;;;;;;7.84;95.84;99797.48;1718310;81;20949;-80
2022/11/09 08:52:41;;;;;;;17.50;9.10;;;;;;;7.87;95.51;99796.61;1729199;81;21566;-80
2022/11/09 08:55:08;;;;;;;13.68;7.90;;;;;;;7.90;95.19;99799.20;1725160;81;21013;-80
2022/11/09 08:57:35;;;;;;;16.25;9.18;;;;;;;7.89;95.47;99803.94;1719851;81;21108;-81
2022/11/09 09:00:03;;;;;;;20.75;9.18;;;;;;;7.90;95.40;99803.94;1724176;81;21019;-80
2022/11/09 09:02:29;;;;;;;21.15;9.15;;;;;;;7.90;95.35;99801.34;1723917;81;21075;-80
2022/11/09 09:04:56;;;;;;;17.77;7.97;;;;;;;7.93;95.30;99801.77;1734349;81;21081;-80
2022/11/09 09:07:22;;;;;;;21.85;8.00;;;;;;;7.96;95.85;99800.03;1730396;81;21017;-80
2022/11/09 09:09:49;;;;;;;19.20;8.63;;;;;;;8.06;95.60;99804.75;1723821;81;20988;-79
2022/11/09 09:12:15;;;;;;;21.95;9.53;;;;;;;8.09;95.81;99805.16;1726094;81;20994;-80
2022/11/09 09:14:42;;;;;;;20.82;8.55;;;;;;;8.17;96.16;99806.84;1721830;81;21027;-80
2022/11/09 09:17:08;;;;;;;17.40;8.48;;;;;;;8.27;96.06;99801.64;1733027;81;21023;-81
2022/11/09 09:19:35;;;;;;;16.77;7.87;;;;;;;8.36;95.91;99800.31;1729350;81;21025;-80
2022/11/09 09:22:02;;;;;;;19.67;7.80;;;;;;;8.41;95.81;99802.45;1729489;81;21380;-80
2022/11/09 09:24:28;;;;;;;91.53;36.50;;;;;;;8.42;95.49;99800.31;1733340;81;21023;-80
2022/11/09 09:26:55;;;;;;;22.85;12.47;;;;;;;8.47;95.95;99792.50;1719958;81;21029;-81
2022/11/09 09:29:22;;;;;;;20.30;9.70;;;;;;;8.46;95.08;99802.02;1722013;81;21662;-80
2022/11/09 09:31:48;;;;;;;20.72;9.70;;;;;;;8.57;95.54;99799.35;1725362;81;21144;-81
2022/11/09 09:34:15;;;;;;;17.75;10.20;;;;;;;8.51;94.92;99789.02;1733670;80;21010;-81
2022/11/09 09:36:42;;;;;;;21.23;9.50;;;;;;;8.51;95.16;99792.91;1742716;80;21028;-78
2022/11/09 09:39:08;;;;;;;20.27;10.10;;;;;;;8.55;94.90;99792.02;1747193;80;21040;-78
2022/11/09 09:41:40;;;;;;;22.25;9.95;;;;;;;8.59;94.75;99793.72;1735207;80;21547;-80
2022/11/09 09:44:21;;;;;;;30.17;13.05;;;;;;;8.63;94.53;99790.69;1751044;80;20981;-78
2022/11/09 09:46:59;;;;;;;30.90;12.90;;;;;;;8.61;94.42;99785.50;1737981;80;21040;-79
2022/11/09 09:49:33;;;;;;;39.45;15.98;;;;;;;8.55;94.11;99786.42;1744091;80;21537;-78
2022/11/09 09:52:11;;;;;;;19.50;8.48;;;;;;;8.58;93.82;99789.88;1741507;80;21008;-78
2022/11/09 09:54:45;;;;;;;27.37;12.68;;;;;;;8.55;93.83;99783.84;1746566;80;21504;-79
2022/11/09 09:57:17;;;;;;;21.25;8.65;;;;;;;8.52;94.05;99781.25;1752901;80;21004;-79
2022/11/09 09:59:51;;;;;;;18.48;8.50;;;;;;;8.58;94.28;99779.50;1762888;80;21557;-79
2022/11/09 10:02:30;;;;;;;16.77;7.50;;;;;;;8.62;94.68;99778.61;1747041;80;20965;-78
2022/11/09 10:05:01;;;;;;;18.00;7.70;;;;;;;8.73;94.96;99778.09;1741200;80;20989;-78
2022/11/09 10:07:55;;;;;;;21.12;7.67;;;;;;;8.78;94.71;99777.63;1752070;80;20996;-78
2022/11/09 10:11:00;;;;;;;18.77;8.03;;;;;;;8.83;94.86;99775.84;1740589;80;21048;-78
2022/11/09 10:13:55;;;;;;;22.65;7.45;;;;;;;8.96;95.20;99774.05;1743850;80;21492;-78
2022/11/09 10:16:41;;;;;;;24.18;7.92;;;;;;;9.00;95.03;99770.55;1753154;80;21017;-78
2022/11/09 10:19:45;;;;;;;21.65;10.48;;;;;;;9.03;94.93;99770.55;1740460;80;21027;-83
2022/11/09 10:22:32;;;;;;;30.43;14.93;;;;;;;9.04;94.84;99761.02;1736067;81;21027;-78
2022/11/09 10:25:07;;;;;;;20.88;9.85;;;;;;;9.04;95.12;99757.98;1736291;80;22311;-78
2022/11/09 10:27:36;;;;;;;26.70;10.28;;;;;;;9.08;94.60;99749.75;1749361;80;21365;-79
2022/11/09 10:30:14;;;;;;;21.97;9.50;;;;;;;9.08;94.39;99756.23;1735400;80;21048;-81
2022/11/09 10:32:46;;;;;;;23.57;9.58;;;;;;;9.03;94.07;99751.09;1739145;80;20992;-78
2022/11/09 10:35:29;;;;;;;21.57;9.75;;;;;;;9.08;94.57;99748.45;1726476;80;21008;-80
2022/11/09 10:37:56;;;;;;;17.85;8.90;;;;;;;9.16;93.59;99748.80;1736005;80;20992;-78
2022/11/09 10:40:43;;;;;;;19.20;9.70;;;;;;;9.12;92.99;99747.55;1729747;80;21067;-80
2022/11/09 10:43:28;;;;;;;20.20;7.55;;;;;;;9.10;92.83;99744.95;1728001;80;21540;-80
2022/11/09 10:46:13;;;;;;;14.20;7.65;;;;;;;9.12;92.71;99739.32;1728850;80;21075;-79
2022/11/09 10:49:04;;;;;;;17.87;7.15;;;;;;;9.12;92.39;99731.54;1732666;80;21018;-79
2022/11/09 10:51:49;;;;;;;11.63;5.17;;;;;;;9.17;92.41;99740.56;1746158;80;21129;-79
2022/11/09 10:54:36;;;;;;;11.43;5.97;;;;;;;9.17;92.10;99732.78;1732846;80;21094;-84
2022/11/09 10:57:24;;;;;;;19.25;8.98;;;;;;;9.18;92.26;99735.81;1726864;80;21027;-78
2022/11/09 11:00:18;;;;;;;13.58;7.92;;;;;;;9.23;92.31;99736.64;1724002;80;21023;-83
2022/11/09 11:03:17;;;;;;;13.00;6.95;;;;;;;9.26;92.61;99731.41;1727621;80;22468;-79
2022/11/09 11:06:07;;;;;;;13.62;6.03;;;;;;;9.32;92.34;99741.73;1723962;80;20992;-79
2022/11/09 11:09:10;;;;;;;14.98;5.97;;;;;;;9.43;92.19;99730.38;1727682;82;21526;-78
2022/11/09 11:12:16;;;;;;;14.13;6.00;;;;;;;9.35;92.03;99730.03;1722731;80;21043;-79
2022/11/09 11:15:01;;;;;;;14.10;6.83;;;;;;;9.39;91.97;99726.09;1726055;80;20985;-79
2022/11/09 11:17:47;;;;;;;16.30;8.68;;;;;;;9.45;92.03;99723.43;1727940;80;21057;-81
2022/11/09 11:20:35;;;;;;;15.53;7.45;;;;;;;9.40;91.73;99718.75;1722809;80;21079;-79
2022/11/09 11:23:24;;;;;;;15.40;7.35;;;;;;;9.39;91.41;99717.89;1729132;80;20994;-83
2022/11/09 11:26:24;;;;;;;17.20;8.43;;;;;;;9.34;91.47;99719.22;1732873;80;21016;-78
2022/11/09 11:29:29;;;;;;;15.80;7.45;;;;;;;9.33;91.68;99728.31;1729009;80;21043;-79
2022/11/09 11:32:17;;;;;;;17.40;8.80;;;;;;;9.31;91.68;99717.09;1723283;80;21096;-78
2022/11/09 11:35:32;;;;;;;16.45;8.40;;;;;;;9.35;92.03;99720.06;1709385;81;21042;-77
2022/11/09 11:38:51;;;;;;;19.07;8.83;;;;;;;9.39;92.09;99719.19;1716644;82;21067;-78
2022/11/09 11:41:57;;;;;;;21.27;10.40;;;;;;;9.46;92.26;99712.19;1686770;82;21039;-79
2022/11/09 11:45:08;;;;;;;17.87;9.23;;;;;;;9.46;91.78;99715.64;1719349;82;21529;-82
2022/11/09 11:48:24;;;;;;;18.50;7.75;;;;;;;9.48;91.46;99710.44;1725287;82;21460;-79
2022/11/09 11:51:26;;;;;;;19.92;7.97;;;;;;;9.45;90.96;99700.08;1728499;82;21573;-79
2022/11/09 11:54:22;;;;;;;17.85;9.00;;;;;;;9.40;91.05;99696.69;1717850;82;21912;-79